Canada's Largest FIR

CZEG Edmonton

Screenshot by Dan Pergau

  Upcoming Events

Northern Lights Tuesdays  May 21, 2024 23:00z

  Online Controllers

No controllers online.

  Weather

CYYC - Calgary International Airport  
CYYC 211300Z 22005KT 20SM SCT092 BKN240 05/03 A2985 RMK AC3CI4 SLP140

CYEG - Edmonton International Airport  
CYEG 211300Z 15005KT 15SM BKN068 BKN140 05/05 A2985 RMK ACC6AC1 SLP129

CYXY - Whitehorse / Erik Nielsen International Airport  
CYXY 211300Z 27002KT 40SM FEW095 M02/M03 A3003 RMK AC1 SLP207

CYZF - Yellowknife International Airport  
CYZF 211300Z 10009KT 15SM FEW060 FEW150 08/01 A2997 RMK SC1AC2 SC TR SLP159

CYMM - Fort McMurray Airport  
CYMM 211326Z AUTO 09008KT 9SM BKN013 BKN029 OVC050 05/03 A2992 RMK SLP152

CYQF - Red Deer Regional Airport  
CYQF 211300Z AUTO 14002KT 9SM SCT140 BKN180 04/04 A2985 RMK SLP138

CZVL - Edmonton / Villeneuve Airport  
CZVL 211300Z AUTO 15004KT 9SM FEW076 05/04 A2984 RMK SLP123

CYBW - Calgary / Springbank Airport  
CYBW 211334Z AUTO 30004KT 9SM SCT180 03/03 A2985 RMK ICE PAST HR SLP146

CYOD - CFB Cold Lake  
CYOD 211300Z 10007KT 15SM OVC006 06/05 A2990 RMK SF8 DENSITY ALT 1231FT SLP143

  View Our Airspace